Time;durP1;ratioP1;P1;durP2;ratioP2;P2;SDS_P1;SDS_P2;PMS_P1;PMS_P2;Temp;Humidity;BMP_temperature;BMP_pressure;BME280_temperature;BME280_humidity;BME280_pressure;Samples;Min_cycle;Max_cycle;Signal;HPM_P1;HPM_P2
2023/08/10 00:00:16;;;;;;;8.47;4.70;;;;;;;12.57;100.00;101320.75;5052821;28;20447;-79
2023/08/10 00:02:46;;;;;;;7.20;4.80;;;;;;;12.54;100.00;101323.00;5059017;23;20460;-81
2023/08/10 00:05:15;;;;;;;6.30;4.30;;;;;;;12.59;100.00;101328.66;5057639;28;20446;-81
2023/08/10 00:07:45;;;;;;;6.97;4.70;;;;;;;12.52;100.00;101327.81;5047288;28;20395;-80
2023/08/10 00:10:15;;;;;;;10.50;6.57;;;;;;;12.47;100.00;101333.88;5057220;28;20798;-80
2023/08/10 00:12:45;;;;;;;6.10;4.10;;;;;;;12.45;100.00;101338.66;5061419;28;20453;-81
2023/08/10 00:15:14;;;;;;;5.70;4.20;;;;;;;12.44;100.00;101336.97;5073628;28;20441;-81
2023/08/10 00:17:44;;;;;;;5.10;4.37;;;;;;;12.39;100.00;101334.03;5054651;28;20448;-79
2023/08/10 00:20:14;;;;;;;6.40;4.50;;;;;;;12.41;100.00;101336.56;5055443;28;20414;-79
2023/08/10 00:22:43;;;;;;;5.77;3.80;;;;;;;12.41;100.00;101331.97;5074443;28;20429;-80
2023/08/10 00:25:14;;;;;;;3.90;3.50;;;;;;;12.48;100.00;101335.56;5062771;28;20415;-79
2023/08/10 00:27:43;;;;;;;4.80;3.80;;;;;;;12.50;100.00;101335.31;5074231;28;20424;-80
2023/08/10 00:30:14;;;;;;;5.07;3.83;;;;;;;12.62;100.00;101329.13;5069247;28;20454;-79
2023/08/10 00:32:43;;;;;;;6.30;3.83;;;;;;;12.76;100.00;101337.28;5057310;28;20450;-79
2023/08/10 00:35:13;;;;;;;4.70;3.97;;;;;;;12.90;100.00;101336.25;5038984;28;20464;-79
2023/08/10 00:37:42;;;;;;;4.57;3.20;;;;;;;12.97;100.00;101326.25;5042374;28;20466;-80
2023/08/10 00:40:12;;;;;;;5.70;4.20;;;;;;;13.07;100.00;101332.94;5056425;28;20427;-79
2023/08/10 00:42:43;;;;;;;14.40;4.30;;;;;;;13.14;100.00;101338.41;5049320;28;20522;-80
2023/08/10 00:45:13;;;;;;;5.93;4.20;;;;;;;13.26;100.00;101333.19;5050677;28;20405;-79
2023/08/10 00:47:42;;;;;;;6.33;4.57;;;;;;;13.32;100.00;101341.34;5070202;28;20407;-80
2023/08/10 00:50:12;;;;;;;8.23;3.87;;;;;;;13.31;100.00;101339.66;5028154;28;20506;-78
2023/08/10 00:52:42;;;;;;;3.93;3.40;;;;;;;13.25;100.00;101340.50;5046332;28;20484;-79
2023/08/10 00:55:11;;;;;;;3.67;3.37;;;;;;;13.28;100.00;101342.81;5050108;28;20398;-79
2023/08/10 00:57:42;;;;;;;8.30;3.90;;;;;;;13.29;100.00;101347.19;5048403;28;20484;-79
2023/08/10 01:00:14;;;;;;;5.17;4.57;;;;;;;13.18;100.00;101345.09;5062024;28;20418;-78
2023/08/10 01:02:43;;;;;;;5.63;4.00;;;;;;;13.14;100.00;101343.84;5046390;28;20429;-79
2023/08/10 01:05:14;;;;;;;5.50;3.80;;;;;;;13.20;100.00;101347.63;5071825;28;20427;-80
2023/08/10 01:07:51;;;;;;;5.17;3.63;;;;;;;13.30;100.00;101358.91;5066038;28;20427;-79
2023/08/10 01:10:32;;;;;;;7.00;4.10;;;;;;;13.26;100.00;101365.81;5057088;28;20405;-78
2023/08/10 01:13:18;;;;;;;4.77;3.43;;;;;;;13.32;100.00;101363.06;5049675;28;20550;-79
2023/08/10 01:15:52;;;;;;;5.27;3.63;;;;;;;13.32;100.00;101356.81;5051793;28;20560;-78
2023/08/10 01:18:26;;;;;;;5.67;3.47;;;;;;;13.33;100.00;101367.47;5051969;28;20422;-78
2023/08/10 01:20:56;;;;;;;4.67;3.93;;;;;;;13.45;100.00;101357.66;5057005;28;20410;-78
2023/08/10 01:23:32;;;;;;;7.30;3.40;;;;;;;13.45;100.00;101357.66;5052403;28;20439;-80
2023/08/10 01:26:05;;;;;;;4.20;3.37;;;;;;;13.43;100.00;101359.75;5051210;28;20935;-78
2023/08/10 01:28:34;;;;;;;8.63;3.87;;;;;;;13.39;100.00;101355.78;5036599;28;20422;-79
2023/08/10 01:31:03;;;;;;;4.70;3.03;;;;;;;13.29;100.00;101362.66;5052012;28;20423;-78
2023/08/10 01:33:33;;;;;;;8.37;3.23;;;;;;;13.31;100.00;101366.03;5049873;28;20515;-78
2023/08/10 01:36:04;;;;;;;3.50;3.20;;;;;;;13.33;100.00;101366.63;5041536;28;20422;-79
2023/08/10 01:38:33;;;;;;;3.10;2.70;;;;;;;13.16;100.00;101357.22;5045705;28;20409;-78
2023/08/10 01:41:04;;;;;;;4.43;2.70;;;;;;;13.21;100.00;101355.56;5043913;28;20520;-79
2023/08/10 01:43:33;;;;;;;4.63;2.40;;;;;;;13.16;100.00;101358.06;5044080;28;20459;-79
2023/08/10 01:46:10;;;;;;;4.00;3.60;;;;;;;13.06;100.00;101357.63;5056367;28;20409;-78
2023/08/10 01:48:42;;;;;;;3.73;3.30;;;;;;;12.93;100.00;101368.44;5060810;28;20401;-78
2023/08/10 01:51:20;;;;;;;3.30;3.00;;;;;;;12.80;100.00;101363.81;5036901;28;20410;-78
2023/08/10 01:53:51;;;;;;;3.60;3.30;;;;;;;12.75;100.00;101370.91;5041678;28;20909;-78
2023/08/10 01:56:22;;;;;;;4.47;2.93;;;;;;;12.79;100.00;101361.31;5060251;28;21066;-79
2023/08/10 01:58:52;;;;;;;5.80;2.83;;;;;;;12.61;100.00;101362.72;5061335;28;20429;-79
2023/08/10 02:01:21;;;;;;;10.30;4.50;;;;;;;12.57;100.00;101356.03;5043233;28;20485;-79
2023/08/10 02:03:51;;;;;;;4.47;3.50;;;;;;;12.62;100.00;101360.84;5042772;28;20457;-79
2023/08/10 02:06:20;;;;;;;6.13;3.40;;;;;;;12.58;100.00;101365.88;5044615;28;20423;-78
2023/08/10 02:08:49;;;;;;;4.50;3.13;;;;;;;12.52;100.00;101363.97;5047720;28;20874;-80
2023/08/10 02:11:18;;;;;;;9.70;4.27;;;;;;;12.48;100.00;101370.84;5035969;28;20508;-79
2023/08/10 02:13:49;;;;;;;11.57;5.00;;;;;;;12.48;100.00;101365.41;5043976;28;20478;-79
2023/08/10 02:16:20;;;;;;;5.60;3.60;;;;;;;12.42;100.00;101360.78;5047979;28;20421;-79
2023/08/10 02:18:49;;;;;;;4.73;3.17;;;;;;;12.45;100.00;101365.78;5060645;28;20433;-77
2023/08/10 02:21:18;;;;;;;4.87;4.30;;;;;;;12.35;100.00;101368.06;5053866;28;20427;-78
2023/08/10 02:23:47;;;;;;;9.27;4.27;;;;;;;12.36;100.00;101367.00;5050656;28;20469;-78
2023/08/10 02:26:16;;;;;;;5.97;4.23;;;;;;;12.28;100.00;101364.50;5070295;28;20405;-78
2023/08/10 02:28:45;;;;;;;3.60;3.17;;;;;;;12.16;100.00;101368.78;5068731;28;20428;-77
2023/08/10 02:31:16;;;;;;;5.63;3.47;;;;;;;12.10;100.00;101372.34;5047358;28;20506;-78
2023/08/10 02:33:45;;;;;;;6.27;4.10;;;;;;;12.03;100.00;101366.03;5044950;28;20490;-80
2023/08/10 02:36:14;;;;;;;6.93;4.30;;;;;;;12.02;100.00;101369.75;5059783;28;20915;-78
2023/08/10 02:38:44;;;;;;;8.00;4.40;;;;;;;11.96;100.00;101362.41;5051353;28;20664;-78
2023/08/10 02:41:13;;;;;;;4.50;3.27;;;;;;;11.88;100.00;101362.59;5079971;28;20388;-78
2023/08/10 02:43:42;;;;;;;4.53;4.13;;;;;;;11.82;100.00;101356.09;5061609;28;20459;-79
2023/08/10 02:46:13;;;;;;;6.30;4.57;;;;;;;11.80;100.00;101354.63;5056167;28;20417;-78
2023/08/10 02:48:43;;;;;;;7.17;4.80;;;;;;;11.80;100.00;101360.03;5054160;28;20428;-78
2023/08/10 02:51:12;;;;;;;9.97;5.10;;;;;;;11.74;100.00;101367.94;5045879;28;20434;-78
2023/08/10 02:53:41;;;;;;;8.30;4.60;;;;;;;11.69;100.00;101364.94;5039381;28;20483;-79
2023/08/10 02:56:10;;;;;;;4.43;4.00;;;;;;;11.70;100.00;101360.38;5070417;28;20406;-80
2023/08/10 02:58:40;;;;;;;6.90;4.47;;;;;;;11.70;100.00;101357.66;5057447;28;20431;-79
2023/08/10 03:01:09;;;;;;;5.60;4.60;;;;;;;11.70;100.00;101372.06;5056374;28;20407;-79
2023/08/10 03:03:42;;;;;;;8.10;5.00;;;;;;;11.61;100.00;101370.53;5041687;28;20467;-78
2023/08/10 03:06:11;;;;;;;5.90;5.40;;;;;;;11.54;100.00;101368.78;5053752;28;20409;-79
2023/08/10 03:08:40;;;;;;;9.53;4.37;;;;;;;11.51;100.00;101366.47;5041344;28;20482;-78
2023/08/10 03:11:09;;;;;;;7.60;5.83;;;;;;;11.53;100.00;101375.22;5040546;28;20493;-78
2023/08/10 03:13:38;;;;;;;9.53;5.10;;;;;;;11.55;100.00;101374.03;5058615;28;20498;-78
2023/08/10 03:16:09;;;;;;;9.63;5.27;;;;;;;11.60;100.00;101390.53;5041699;28;20949;-78
2023/08/10 03:18:39;;;;;;;9.40;5.00;;;;;;;11.74;100.00;101384.19;5044582;28;20430;-79
2023/08/10 03:21:10;;;;;;;6.40;4.57;;;;;;;11.75;100.00;101385.88;5050389;28;20432;-78
2023/08/10 03:23:39;;;;;;;10.30;4.53;;;;;;;11.75;100.00;101388.59;5023270;28;20795;-78
2023/08/10 03:26:08;;;;;;;5.87;4.37;;;;;;;11.82;100.00;101387.78;5042251;28;20431;-79
2023/08/10 03:28:38;;;;;;;6.47;5.60;;;;;;;11.82;100.00;101385.06;5061009;28;20514;-79
2023/08/10 03:31:08;;;;;;;6.00;4.53;;;;;;;11.73;100.00;101387.09;5030700;28;20865;-80
2023/08/10 03:33:38;;;;;;;8.80;5.67;;;;;;;11.68;100.00;101400.38;5039331;28;20470;-80
2023/08/10 03:36:09;;;;;;;8.97;4.60;;;;;;;11.71;100.00;101394.59;5039848;28;20439;-79
2023/08/10 03:38:38;;;;;;;6.70;4.93;;;;;;;11.68;100.00;101401.22;5042090;28;20468;-79
2023/08/10 03:41:07;;;;;;;9.40;4.87;;;;;;;11.65;100.00;101396.22;5044326;28;20462;-78
2023/08/10 03:43:36;;;;;;;7.07;5.27;;;;;;;11.68;100.00;101401.22;5061278;28;20447;-79
2023/08/10 03:46:07;;;;;;;11.53;4.70;;;;;;;11.67;100.00;101388.69;5060050;28;20405;-79
2023/08/10 03:48:36;;;;;;;5.40;4.20;;;;;;;11.69;100.00;101392.06;5036655;28;20447;-79
2023/08/10 03:51:05;;;;;;;10.30;4.37;;;;;;;11.62;100.00;101385.72;5022053;28;20497;-79
2023/08/10 03:53:36;;;;;;;8.30;5.00;;;;;;;11.59;100.00;101391.56;5030321;28;20801;-79
2023/08/10 03:56:06;;;;;;;5.67;4.23;;;;;;;11.53;100.00;101397.75;5030141;28;20479;-79
2023/08/10 03:58:36;;;;;;;6.63;4.20;;;;;;;11.47;100.00;101398.56;5036299;28;20422;-79
2023/08/10 04:01:06;;;;;;;5.97;4.03;;;;;;;11.49;100.00;101407.31;5027038;28;20850;-79
2023/08/10 04:03:38;;;;;;;6.43;3.83;;;;;;;11.57;100.00;101409.06;5042128;28;20426;-79
2023/08/10 04:06:08;;;;;;;5.83;3.83;;;;;;;11.59;100.00;101415.13;5054481;28;20401;-78
2023/08/10 04:08:38;;;;;;;6.07;3.90;;;;;;;11.61;100.00;101422.03;5037017;28;20407;-77
2023/08/10 04:11:08;;;;;;;7.43;4.90;;;;;;;11.66;100.00;101414.16;5026950;28;20418;-78
2023/08/10 04:13:37;;;;;;;6.90;5.27;;;;;;;11.75;100.00;101415.72;5042085;28;20472;-79
2023/08/10 04:16:06;;;;;;;14.50;4.93;;;;;;;12.02;100.00;101415.88;5023631;28;20437;-78
2023/08/10 04:18:37;;;;;;;6.47;5.00;;;;;;;13.01;100.00;101415.28;5023647;28;20425;-80
2023/08/10 04:21:06;;;;;;;5.10;4.40;;;;;;;14.08;100.00;101423.28;5050207;28;20908;-79
2023/08/10 04:23:37;;;;;;;6.53;4.73;;;;;;;14.56;98.76;101422.97;5053591;28;20457;-78
2023/08/10 04:26:07;;;;;;;7.53;5.27;;;;;;;14.35;98.37;101421.31;5035596;28;20485;-78
2023/08/10 04:28:36;;;;;;;7.03;4.03;;;;;;;14.10;99.78;101425.78;5033669;28;20546;-79
2023/08/10 04:31:05;;;;;;;4.30;3.60;;;;;;;13.83;100.00;101420.41;5036348;28;20425;-78
2023/08/10 04:33:34;;;;;;;6.63;4.50;;;;;;;13.69;100.00;101423.34;5053939;28;20436;-78
2023/08/10 04:36:04;;;;;;;5.13;3.10;;;;;;;13.67;100.00;101415.38;5043284;28;20452;-79
2023/08/10 04:38:34;;;;;;;3.30;2.93;;;;;;;13.65;100.00;101420.16;5052967;28;20414;-79
2023/08/10 04:41:05;;;;;;;6.17;4.47;;;;;;;13.70;100.00;101419.56;5046525;28;20426;-79
2023/08/10 04:43:34;;;;;;;5.53;3.60;;;;;;;13.77;100.00;101425.81;5046868;28;20494;-78
2023/08/10 04:46:03;;;;;;;5.70;4.00;;;;;;;14.04;100.00;101430.19;5056455;28;20434;-79
2023/08/10 04:48:32;;;;;;;5.77;3.93;;;;;;;14.11;100.00;101425.56;5054375;28;20448;-78
2023/08/10 04:51:02;;;;;;;4.70;3.50;;;;;;;14.15;100.00;101434.97;5054739;28;20420;-80
2023/08/10 04:53:31;;;;;;;8.10;3.93;;;;;;;14.05;100.00;101429.13;5052663;28;20466;-79
2023/08/10 04:56:00;;;;;;;10.30;3.07;;;;;;;13.85;100.00;101431.88;5054989;28;20427;-79
2023/08/10 04:58:31;;;;;;;7.77;3.90;;;;;;;13.76;100.00;101432.31;5049687;28;20455;-78
2023/08/10 05:01:02;;;;;;;6.50;4.30;;;;;;;13.66;100.00;101435.44;5032358;28;20443;-80
2023/08/10 05:03:31;;;;;;;6.90;2.90;;;;;;;13.77;100.00;101442.16;5050698;28;20487;-79
2023/08/10 05:06:00;;;;;;;5.40;3.57;;;;;;;13.67;100.00;101441.72;5047620;28;20527;-79
2023/08/10 05:08:30;;;;;;;5.73;3.40;;;;;;;13.79;100.00;101445.50;5038454;28;20405;-79
2023/08/10 05:10:59;;;;;;;5.00;3.30;;;;;;;14.52;100.00;101451.69;5052322;28;20424;-79
2023/08/10 05:13:30;;;;;;;6.60;3.40;;;;;;;16.76;85.15;101448.91;5046017;28;20467;-79
2023/08/10 05:15:59;;;;;;;4.57;3.40;;;;;;;18.72;72.87;101459.63;5039672;28;20457;-78
2023/08/10 05:18:28;;;;;;;6.70;3.53;;;;;;;20.18;64.68;101461.47;5047832;28;20409;-78
2023/08/10 05:21:00;;;;;;;7.93;3.10;;;;;;;19.75;64.31;101470.38;5047518;28;20768;-78
2023/08/10 05:23:29;;;;;;;8.07;2.90;;;;;;;18.48;67.25;101472.50;5054568;28;20805;-79
2023/08/10 05:25:58;;;;;;;4.50;2.83;;;;;;;17.50;71.69;101474.16;5049346;28;20428;-79
2023/08/10 05:28:32;;;;;;;5.17;2.77;;;;;;;16.84;75.31;101478.69;5057758;28;20477;-79
2023/08/10 05:31:01;;;;;;;6.80;2.80;;;;;;;16.40;78.57;101484.41;5068285;28;20403;-78
2023/08/10 05:33:30;;;;;;;8.13;3.33;;;;;;;15.82;80.07;101478.44;5063626;28;20422;-80
2023/08/10 05:35:59;;;;;;;16.00;3.77;;;;;;;15.47;83.35;101481.59;5058642;28;20491;-79
2023/08/10 05:38:28;;;;;;;5.43;3.17;;;;;;;15.43;83.71;101476.81;5049430;28;20458;-78
2023/08/10 05:40:58;;;;;;;8.10;3.50;;;;;;;15.29;85.18;101476.06;5041861;28;20469;-79
2023/08/10 05:43:27;;;;;;;5.80;3.33;;;;;;;15.22;85.42;101478.81;5034750;28;20430;-79
2023/08/10 05:45:58;;;;;;;3.83;2.50;;;;;;;15.15;86.01;101478.00;5037868;28;20439;-79
2023/08/10 05:48:27;;;;;;;6.70;3.13;;;;;;;15.14;85.39;101475.53;5033993;28;20446;-80
2023/08/10 05:50:56;;;;;;;4.30;3.30;;;;;;;15.16;86.13;101478.84;5046811;28;20402;-80
2023/08/10 05:53:26;;;;;;;6.87;3.60;;;;;;;15.20;85.79;101480.09;5055005;28;20430;-79
2023/08/10 05:55:55;;;;;;;7.23;3.70;;;;;;;15.20;85.49;101478.19;5048950;28;20492;-80
2023/08/10 05:58:25;;;;;;;9.00;3.80;;;;;;;15.30;84.97;101482.34;5054112;28;20427;-80
2023/08/10 06:00:54;;;;;;;8.33;3.00;;;;;;;15.48;83.42;101482.44;5031863;28;20459;-79
2023/08/10 06:03:25;;;;;;;12.37;4.87;;;;;;;15.64;82.49;101487.38;5050902;23;20444;-80
2023/08/10 06:05:54;;;;;;;6.07;3.07;;;;;;;15.81;81.34;101484.94;5032115;28;20416;-81
2023/08/10 06:08:23;;;;;;;9.30;2.87;;;;;;;15.90;80.17;101479.00;5016911;28;20707;-80
2023/08/10 06:10:53;;;;;;;12.33;4.60;;;;;;;15.88;79.62;101483.81;5018689;28;20435;-79
2023/08/10 06:13:22;;;;;;;10.47;3.10;;;;;;;15.81;79.11;101484.94;5018857;28;20431;-80
2023/08/10 06:15:51;;;;;;;6.63;2.70;;;;;;;15.85;76.93;101487.00;5023144;28;20456;-81
2023/08/10 06:18:20;;;;;;;13.13;2.97;;;;;;;15.75;76.77;101494.84;5022574;28;20465;-80
2023/08/10 06:20:51;;;;;;;6.13;2.30;;;;;;;15.86;77.34;101494.16;5020603;28;20403;-80
2023/08/10 06:23:20;;;;;;;9.57;3.40;;;;;;;16.10;77.36;101495.19;5005554;28;20461;-80
2023/08/10 06:25:50;;;;;;;12.13;3.43;;;;;;;16.31;76.32;101503.00;5022954;28;20430;-80
2023/08/10 06:28:20;;;;;;;4.90;2.60;;;;;;;16.28;75.46;101503.41;5021288;28;20406;-79
2023/08/10 06:30:49;;;;;;;9.40;2.97;;;;;;;16.31;76.52;101504.88;5029651;28;20424;-77
2023/08/10 06:33:20;;;;;;;7.13;2.70;;;;;;;16.28;75.17;101499.84;5029904;28;20797;-80
2023/08/10 06:35:54;;;;;;;8.20;2.70;;;;;;;16.19;74.55;101498.47;5015165;28;20469;-78
2023/08/10 06:38:24;;;;;;;7.07;3.07;;;;;;;16.30;74.31;101500.47;5028994;28;20415;-79
2023/08/10 06:40:55;;;;;;;9.27;4.33;;;;;;;16.70;73.86;101501.72;5037349;28;20436;-79
2023/08/10 06:43:24;;;;;;;8.70;3.53;;;;;;;17.04;72.48;101507.66;5012575;28;20470;-79
2023/08/10 06:45:54;;;;;;;4.60;3.13;;;;;;;17.26;72.27;101511.56;5013412;28;20445;-79
2023/08/10 06:48:24;;;;;;;8.07;3.40;;;;;;;17.49;70.39;101508.06;5034673;28;20422;-80
2023/08/10 06:50:54;;;;;;;12.33;3.20;;;;;;;17.56;69.69;101511.56;5034404;28;20464;-79
2023/08/10 06:53:23;;;;;;;7.20;3.10;;;;;;;17.25;68.44;101513.47;5032908;28;20467;-80
2023/08/10 06:55:52;;;;;;;10.53;3.70;;;;;;;17.27;69.22;101521.44;5035149;28;20475;-80
2023/08/10 06:58:26;;;;;;;6.00;3.00;;;;;;;17.06;69.36;101527.38;5039556;28;20423;-81
2023/08/10 07:00:58;;;;;;;6.73;3.10;;;;;;;17.15;70.35;101515.06;5029038;28;20427;-82
2023/08/10 07:03:27;;;;;;;9.87;3.33;;;;;;;17.50;70.18;101516.06;5023928;28;20443;-81
2023/08/10 07:05:58;;;;;;;6.57;3.20;;;;;;;17.88;66.64;101526.66;5028338;28;20411;-81
2023/08/10 07:08:27;;;;;;;8.20;3.40;;;;;;;18.14;64.99;101523.50;5021318;28;20472;-81
2023/08/10 07:10:56;;;;;;;9.57;2.90;;;;;;;18.18;65.14;101521.09;5024180;28;20478;-80
2023/08/10 07:13:25;;;;;;;9.00;2.47;;;;;;;18.39;63.73;101527.91;5019861;28;20435;-80
2023/08/10 07:15:54;;;;;;;9.00;2.27;;;;;;;18.85;62.03;101521.56;5019095;28;20464;-81
2023/08/10 07:18:23;;;;;;;6.43;2.10;;;;;;;18.81;59.30;101521.22;5020470;28;20408;-80
2023/08/10 07:20:54;;;;;;;7.60;1.83;;;;;;;18.81;59.37;101525.88;5015902;28;20411;-81
2023/08/10 07:23:27;;;;;;;4.73;1.90;;;;;;;18.55;58.83;101522.56;5005218;28;20468;-79
2023/08/10 07:25:56;;;;;;;9.40;3.40;;;;;;;18.44;61.11;101526.13;5019881;28;20894;-78
2023/08/10 07:28:25;;;;;;;5.83;2.50;;;;;;;18.56;59.36;101532.44;5020534;28;20458;-78
2023/08/10 07:30:55;;;;;;;10.07;2.10;;;;;;;18.64;57.11;101537.56;5020254;28;20918;-79
2023/08/10 07:33:24;;;;;;;9.13;2.27;;;;;;;18.77;57.26;101535.66;5017399;28;20964;-81
2023/08/10 07:35:53;;;;;;;7.07;2.40;;;;;;;18.63;56.63;101530.44;5044750;28;20465;-79
2023/08/10 07:38:24;;;;;;;4.57;2.10;;;;;;;18.96;55.80;101528.94;5041048;28;21415;-81
2023/08/10 07:40:53;;;;;;;6.73;1.80;;;;;;;19.43;53.51;101535.09;5022309;28;20446;-82
2023/08/10 07:43:22;;;;;;;7.27;2.20;;;;;;;19.13;53.89;101540.81;5016349;28;20460;-80
2023/08/10 07:45:51;;;;;;;14.03;3.00;;;;;;;19.08;54.20;101543.44;5019332;28;20433;-80
2023/08/10 07:48:20;;;;;;;9.60;1.93;;;;;;;18.91;52.73;101545.28;5024363;28;20506;-82
2023/08/10 07:50:52;;;;;;;9.10;1.90;;;;;;;18.60;53.13;101547.34;5027906;28;20491;-79
2023/08/10 07:53:21;;;;;;;3.43;1.73;;;;;;;18.23;54.02;101551.38;5011131;28;20473;-79
2023/08/10 07:55:57;;;;;;;7.23;3.53;;;;;;;18.52;55.12;101549.59;5031803;28;20438;-80
2023/08/10 07:58:26;;;;;;;7.70;2.67;;;;;;;18.86;53.19;101561.63;5031112;28;20480;-77
2023/08/10 08:00:55;;;;;;;5.33;1.63;;;;;;;19.31;54.19;101562.59;5031635;28;20406;-78
2023/08/10 08:03:24;;;;;;;8.30;2.40;;;;;;;19.47;52.47;101563.75;5023830;28;20480;-79
2023/08/10 08:05:53;;;;;;;7.23;2.17;;;;;;;19.41;53.49;101564.72;5019212;28;20421;-81
2023/08/10 08:08:22;;;;;;;5.90;2.07;;;;;;;19.52;53.72;101561.94;5030735;28;20472;-78
2023/08/10 08:10:53;;;;;;;5.60;1.80;;;;;;;19.43;53.48;101563.38;5029653;28;20509;-80
2023/08/10 08:13:22;;;;;;;6.00;1.90;;;;;;;19.78;53.50;101565.16;5020263;28;21219;-79
2023/08/10 08:15:51;;;;;;;5.23;1.70;;;;;;;19.81;51.21;101568.25;5019194;28;20476;-81
2023/08/10 08:18:43;;;;;;;4.63;1.60;;;;;;;19.10;52.61;101569.56;5017611;28;20440;-80
2023/08/10 08:21:14;;;;;;;4.63;1.70;;;;;;;19.20;54.27;101562.63;5017808;28;20853;-81
2023/08/10 08:23:44;;;;;;;5.73;2.30;;;;;;;19.22;52.57;101555.00;5017225;28;20441;-80
2023/08/10 08:26:15;;;;;;;7.63;2.40;;;;;;;19.57;51.78;101558.47;5012270;28;20409;-81
2023/08/10 08:28:45;;;;;;;9.77;2.33;;;;;;;19.30;52.33;101552.69;5016734;28;20448;-80
2023/08/10 08:31:15;;;;;;;6.20;2.30;;;;;;;19.24;53.35;101550.09;5000272;28;20523;-80
2023/08/10 08:33:47;;;;;;;6.23;2.13;;;;;;;18.99;54.96;101550.38;5017451;28;20459;-79
2023/08/10 08:36:16;;;;;;;7.23;2.27;;;;;;;19.24;53.71;101550.91;5016712;28;20505;-81
2023/08/10 08:38:45;;;;;;;8.50;2.97;;;;;;;18.92;53.16;101552.44;5005512;28;20437;-81
2023/08/10 08:41:20;;;;;;;5.13;1.80;;;;;;;19.06;52.95;101553.84;5003705;28;20464;-81
2023/08/10 08:43:51;;;;;;;4.10;1.87;;;;;;;19.70;52.21;101543.63;4995948;28;20470;-81
2023/08/10 08:46:26;;;;;;;10.30;2.47;;;;;;;20.02;52.52;101554.88;5020435;28;20423;-79
2023/08/10 08:48:56;;;;;;;10.23;4.00;;;;;;;19.92;52.19;101550.88;5020514;28;20414;-81
2023/08/10 08:51:25;;;;;;;4.47;2.70;;;;;;;20.15;50.89;101551.78;5017429;28;20429;-81
2023/08/10 08:53:55;;;;;;;9.17;2.27;;;;;;;20.34;49.07;101554.06;5015187;28;20427;-79
2023/08/10 08:56:27;;;;;;;3.70;1.67;;;;;;;20.04;47.49;101559.06;5006148;28;20476;-81
2023/08/10 08:58:58;;;;;;;5.10;1.60;;;;;;;20.09;48.37;101556.38;5015237;28;20458;-80
2023/08/10 09:01:29;;;;;;;5.03;2.00;;;;;;;20.39;48.30;101556.06;5001937;28;20449;-80
2023/08/10 09:03:58;;;;;;;6.30;2.23;;;;;;;20.02;48.22;101555.72;5015481;28;21022;-83
2023/08/10 09:06:27;;;;;;;4.10;1.60;;;;;;;19.86;49.55;101556.53;5003304;28;20449;-80
2023/08/10 09:08:56;;;;;;;4.83;2.33;;;;;;;19.92;48.94;101556.38;5015801;28;20472;-80
2023/08/10 09:11:29;;;;;;;4.07;1.77;;;;;;;19.62;49.43;101557.72;5016740;28;20505;-79
2023/08/10 09:14:08;;;;;;;7.00;1.83;;;;;;;19.32;50.65;101567.00;5016484;28;20803;-81
2023/08/10 09:16:38;;;;;;;4.40;2.07;;;;;;;19.19;51.00;101566.44;5016936;28;20491;-81
2023/08/10 09:19:12;;;;;;;3.33;2.00;;;;;;;19.50;51.56;101558.63;5016753;28;20406;-80
2023/08/10 09:21:41;;;;;;;6.30;3.40;;;;;;;20.20;50.97;101557.38;5016171;28;20424;-81
2023/08/10 09:24:11;;;;;;;6.43;2.60;;;;;;;20.92;49.13;101562.88;5016512;28;20460;-80
2023/08/10 09:26:43;;;;;;;5.00;1.93;;;;;;;21.39;47.96;101555.00;5000130;28;20427;-81
2023/08/10 09:29:12;;;;;;;5.63;2.37;;;;;;;21.99;47.25;101552.03;5017194;28;20437;-81
2023/08/10 09:31:43;;;;;;;5.40;2.40;;;;;;;22.17;46.41;101551.66;5030850;28;20407;-80
2023/08/10 09:34:22;;;;;;;5.70;2.43;;;;;;;22.38;44.59;101563.66;5022499;28;20457;-80
2023/08/10 09:36:54;;;;;;;6.17;1.50;;;;;;;22.34;42.09;101562.53;5029540;28;20479;-79
2023/08/10 09:39:32;;;;;;;3.70;2.20;;;;;;;21.49;43.93;101563.38;5030764;28;20414;-79
2023/08/10 09:42:03;;;;;;;5.27;2.30;;;;;;;20.68;46.32;101562.28;5015766;28;20506;-81
2023/08/10 09:44:45;;;;;;;8.07;2.40;;;;;;;19.82;47.91;101558.94;5009983;28;20445;-81
2023/08/10 09:47:14;;;;;;;6.90;1.97;;;;;;;19.60;48.90;101562.63;5012481;28;20435;-80
2023/08/10 09:49:55;;;;;;;7.80;1.57;;;;;;;19.73;49.73;101562.31;5012893;28;20440;-81
2023/08/10 09:52:25;;;;;;;7.23;1.70;;;;;;;20.33;48.40;101563.38;5016909;28;20518;-83
2023/08/10 09:54:56;;;;;;;5.43;2.43;;;;;;;20.41;48.47;101572.31;5004416;28;20822;-80
2023/08/10 09:57:28;;;;;;;5.23;1.97;;;;;;;20.10;48.59;101569.03;5011139;28;20823;-80
2023/08/10 09:59:58;;;;;;;5.43;2.07;;;;;;;19.84;49.08;101570.53;5021484;28;20495;-81
2023/08/10 10:02:27;;;;;;;5.57;2.00;;;;;;;19.88;48.92;101562.59;5000987;28;20479;-80
2023/08/10 10:04:56;;;;;;;3.37;1.60;;;;;;;19.95;49.45;101560.53;5020215;28;20448;-79
2023/08/10 10:07:28;;;;;;;2.90;1.73;;;;;;;19.99;48.83;101567.22;5031781;28;20407;-79
2023/08/10 10:10:00;;;;;;;4.47;2.17;;;;;;;20.13;48.26;101560.31;5038204;28;20437;-80
2023/08/10 10:12:35;;;;;;;6.87;1.93;;;;;;;20.25;48.00;101557.47;5040431;28;20445;-79
2023/08/10 10:15:06;;;;;;;4.87;2.03;;;;;;;20.20;48.64;101563.72;5007708;28;20547;-78
2023/08/10 10:17:36;;;;;;;5.00;2.37;;;;;;;20.51;47.62;101559.56;5022302;28;20527;-83
2023/08/10 10:20:11;;;;;;;7.87;2.03;;;;;;;20.56;47.78;101558.81;5020528;28;20433;-80
2023/08/10 10:22:40;;;;;;;6.47;1.90;;;;;;;20.74;46.79;101558.53;5004012;28;20778;-81
2023/08/10 10:25:16;;;;;;;2.60;1.87;;;;;;;20.97;47.14;101566.53;5019194;28;20440;-80
2023/08/10 10:27:51;;;;;;;4.97;2.27;;;;;;;20.99;47.22;101560.78;5019580;28;20841;-83
2023/08/10 10:30:23;;;;;;;4.90;1.40;;;;;;;21.02;47.63;101561.09;5019882;28;20958;-80
2023/08/10 10:32:53;;;;;;;4.87;1.83;;;;;;;21.31;47.92;101553.50;5020659;28;20817;-81
2023/08/10 10:35:33;;;;;;;4.30;1.90;;;;;;;21.51;48.25;101555.66;5001719;28;20475;-81
2023/08/10 10:38:06;;;;;;;4.20;2.13;;;;;;;21.06;47.91;101553.16;5003437;28;20435;-81
2023/08/10 10:40:36;;;;;;;4.33;1.80;;;;;;;20.63;47.72;101548.44;5018183;28;20453;-80
2023/08/10 10:43:14;;;;;;;6.50;1.73;;;;;;;20.42;48.02;101543.75;5000556;28;20466;-79
2023/08/10 10:45:44;;;;;;;6.57;1.90;;;;;;;20.32;49.05;101555.41;5022495;28;20480;-82
2023/08/10 10:48:14;;;;;;;4.17;2.93;;;;;;;20.27;49.16;101542.41;5018734;28;20447;-79
2023/08/10 10:50:45;;;;;;;3.47;2.00;;;;;;;20.10;49.12;101540.72;5018468;28;20438;-82
2023/08/10 10:53:17;;;;;;;3.10;2.00;;;;;;;20.46;49.09;101532.00;4996180;28;20480;-81
2023/08/10 10:55:48;;;;;;;5.43;3.03;;;;;;;20.94;48.72;101536.78;5021366;28;20431;-80
2023/08/10 10:58:19;;;;;;;3.67;2.50;;;;;;;21.07;46.97;101536.41;5028919;28;20440;-80
2023/08/10 11:00:48;;;;;;;5.27;2.60;;;;;;;21.33;47.83;101539.50;5036737;28;20728;-82
2023/08/10 11:03:19;;;;;;;4.40;2.30;;;;;;;21.49;46.63;101527.56;5024310;28;20522;-79
2023/08/10 11:05:48;;;;;;;6.97;2.70;;;;;;;21.37;46.81;101524.13;4998749;28;20563;-81
2023/08/10 11:08:18;;;;;;;7.43;2.47;;;;;;;21.67;46.02;101532.69;5018280;28;20429;-81
2023/08/10 11:10:50;;;;;;;4.77;2.23;;;;;;;21.72;45.40;101529.16;5015793;28;20461;-82
2023/08/10 11:13:28;;;;;;;4.27;2.77;;;;;;;21.57;45.74;101530.69;5000216;28;20447;-80
2023/08/10 11:15:58;;;;;;;5.40;1.80;;;;;;;21.02;46.92;101528.09;5012808;28;20424;-79
2023/08/10 11:18:27;;;;;;;3.60;2.10;;;;;;;20.94;47.75;101528.53;5016035;28;20910;-82
2023/08/10 11:20:56;;;;;;;3.90;2.23;;;;;;;20.45;47.76;101533.06;5016520;28;20440;-81
2023/08/10 11:23:27;;;;;;;6.77;2.40;;;;;;;20.12;48.46;101525.66;5007506;28;20457;-81
2023/08/10 11:25:57;;;;;;;6.80;2.80;;;;;;;20.24;48.44;101529.13;5018833;28;20480;-81
2023/08/10 11:28:28;;;;;;;4.13;2.27;;;;;;;20.08;49.54;101530.00;5015872;28;20449;-80
2023/08/10 11:31:04;;;;;;;3.30;2.20;;;;;;;19.90;49.71;101524.72;5019982;28;20445;-82
2023/08/10 11:33:33;;;;;;;3.03;2.53;;;;;;;19.77;49.80;101523.13;5035367;28;20454;-81
2023/08/10 11:36:03;;;;;;;6.47;2.13;;;;;;;20.18;49.24;101532.91;5024986;28;20506;-81